Bathurst Island Cape Fourcroy, Australia
Current Conditions -  °F | °C
As of 11:00 PM on Wednesday 22 Oct 2014 (Local Time) from YPDN Reporting Station
Broken Clouds Broken Clouds  
Wind Chill: 82°   Ceiling: 3500
Heat Index: 87°   Visibility: 6mi
Dew Point: 72°   Wind: 10mph
Humidity: 70%   Direction: 300°WNW
Pressure: 29.94"   Gusts: NA
Location:  11.78°S, 130.02°E
Report Text: YPDN 221400Z 30009KT 9999 BKN035 28/22 Q1014
Loading
Personal Weather Stations






























Interactive Weather Map
Tropical Storm Tracking
New forecast layout! Learn more

10-Day Weather Forecast

Advertisements
Track Severe Weather on mobile